sensor_id;sensor_type;location;lat;lon;timestamp;pressure;altitude;pressure_sealevel;temperature;humidity
52469;BME280;38381;53.688;10.776;2024-03-06T00:00:43;101793.88;;;4.21;86.45
52469;BME280;38381;53.688;10.776;2024-03-06T00:05:43;101786.69;;;4.32;85.95
52469;BME280;38381;53.688;10.776;2024-03-06T00:10:44;101789.63;;;4.21;85.79
52469;BME280;38381;53.688;10.776;2024-03-06T00:15:45;101797.50;;;4.25;85.73
52469;BME280;38381;53.688;10.776;2024-03-06T00:20:45;101798.97;;;4.03;85.93
52469;BME280;38381;53.688;10.776;2024-03-06T00:25:46;101801.38;;;4.16;86.04
52469;BME280;38381;53.688;10.776;2024-03-06T00:30:47;101801.19;;;4.13;86.05
52469;BME280;38381;53.688;10.776;2024-03-06T00:35:47;101803.03;;;3.98;85.91
52469;BME280;38381;53.688;10.776;2024-03-06T00:40:48;101814.06;;;3.97;85.74
52469;BME280;38381;53.688;10.776;2024-03-06T00:45:48;101819.69;;;4.06;84.77
52469;BME280;38381;53.688;10.776;2024-03-06T00:50:49;101822.28;;;3.90;85.04
52469;BME280;38381;53.688;10.776;2024-03-06T00:55:49;101821.94;;;4.00;84.30
52469;BME280;38381;53.688;10.776;2024-03-06T01:00:49;101826.34;;;4.02;84.02
52469;BME280;38381;53.688;10.776;2024-03-06T01:05:50;101835.44;;;3.96;83.47
52469;BME280;38381;53.688;10.776;2024-03-06T01:10:52;101833.09;;;4.00;83.70
52469;BME280;38381;53.688;10.776;2024-03-06T01:15:53;101839.75;;;3.97;83.79
52469;BME280;38381;53.688;10.776;2024-03-06T01:20:53;101832.53;;;4.06;83.31
52469;BME280;38381;53.688;10.776;2024-03-06T01:25:54;101837.19;;;3.97;83.30
52469;BME280;38381;53.688;10.776;2024-03-06T01:30:54;101833.00;;;3.99;83.42
52469;BME280;38381;53.688;10.776;2024-03-06T01:35:55;101847.34;;;3.95;83.52
52469;BME280;38381;53.688;10.776;2024-03-06T01:40:55;101851.94;;;4.01;83.34
52469;BME280;38381;53.688;10.776;2024-03-06T01:45:56;101851.47;;;3.92;83.38
52469;BME280;38381;53.688;10.776;2024-03-06T01:50:59;101855.13;;;3.97;83.06
52469;BME280;38381;53.688;10.776;2024-03-06T01:56:00;101863.34;;;3.90;82.51
52469;BME280;38381;53.688;10.776;2024-03-06T02:01:01;101866.56;;;3.86;82.67
52469;BME280;38381;53.688;10.776;2024-03-06T02:06:03;101869.28;;;3.89;82.68
52469;BME280;38381;53.688;10.776;2024-03-06T02:11:04;101862.31;;;3.86;81.96
52469;BME280;38381;53.688;10.776;2024-03-06T02:16:05;101873.31;;;3.83;82.28
52469;BME280;38381;53.688;10.776;2024-03-06T02:21:06;101869.19;;;3.87;81.92
52469;BME280;38381;53.688;10.776;2024-03-06T02:26:07;101870.88;;;3.87;81.64
52469;BME280;38381;53.688;10.776;2024-03-06T02:31:08;101872.56;;;3.86;81.56
52469;BME280;38381;53.688;10.776;2024-03-06T02:36:08;101872.72;;;3.89;81.57
52469;BME280;38381;53.688;10.776;2024-03-06T02:41:10;101876.66;;;3.82;81.14
52469;BME280;38381;53.688;10.776;2024-03-06T02:46:10;101877.16;;;3.75;81.30
52469;BME280;38381;53.688;10.776;2024-03-06T02:51:10;101874.00;;;3.81;80.70
52469;BME280;38381;53.688;10.776;2024-03-06T02:56:18;101874.25;;;3.86;80.25
52469;BME280;38381;53.688;10.776;2024-03-06T03:01:18;101881.31;;;3.90;80.53
52469;BME280;38381;53.688;10.776;2024-03-06T03:06:19;101882.50;;;3.96;80.41
52469;BME280;38381;53.688;10.776;2024-03-06T03:11:19;101884.03;;;3.93;80.64
52469;BME280;38381;53.688;10.776;2024-03-06T03:16:19;101889.72;;;3.87;80.29
52469;BME280;38381;53.688;10.776;2024-03-06T03:21:20;101891.16;;;3.82;80.48
52469;BME280;38381;53.688;10.776;2024-03-06T03:26:21;101887.66;;;3.80;80.96
52469;BME280;38381;53.688;10.776;2024-03-06T03:31:22;101901.53;;;3.83;80.39
52469;BME280;38381;53.688;10.776;2024-03-06T03:36:22;101910.81;;;3.81;80.82
52469;BME280;38381;53.688;10.776;2024-03-06T03:41:22;101912.16;;;3.91;80.50
52469;BME280;38381;53.688;10.776;2024-03-06T03:46:23;101918.19;;;3.92;80.85
52469;BME280;38381;53.688;10.776;2024-03-06T03:51:23;101914.81;;;3.93;80.62
52469;BME280;38381;53.688;10.776;2024-03-06T03:56:24;101915.22;;;3.84;80.66
52469;BME280;38381;53.688;10.776;2024-03-06T04:01:27;101919.31;;;3.80;80.13
52469;BME280;38381;53.688;10.776;2024-03-06T04:06:28;101921.31;;;3.86;80.96
52469;BME280;38381;53.688;10.776;2024-03-06T04:11:28;101927.97;;;3.82;80.26
52469;BME280;38381;53.688;10.776;2024-03-06T04:16:29;101926.69;;;3.74;80.39
52469;BME280;38381;53.688;10.776;2024-03-06T04:21:30;101933.66;;;3.77;80.07
52469;BME280;38381;53.688;10.776;2024-03-06T04:26:30;101939.72;;;3.62;80.94
52469;BME280;38381;53.688;10.776;2024-03-06T04:31:31;101943.28;;;3.81;80.66
52469;BME280;38381;53.688;10.776;2024-03-06T04:36:31;101944.31;;;3.85;80.58
52469;BME280;38381;53.688;10.776;2024-03-06T04:41:32;101947.22;;;3.74;80.88
52469;BME280;38381;53.688;10.776;2024-03-06T04:46:32;101944.66;;;3.74;80.53
52469;BME280;38381;53.688;10.776;2024-03-06T04:51:32;101946.25;;;3.72;80.87
52469;BME280;38381;53.688;10.776;2024-03-06T04:56:33;101949.53;;;3.70;81.36
52469;BME280;38381;53.688;10.776;2024-03-06T05:01:34;101948.66;;;3.69;81.08
52469;BME280;38381;53.688;10.776;2024-03-06T05:06:34;101957.63;;;3.61;81.54
52469;BME280;38381;53.688;10.776;2024-03-06T05:11:37;101958.09;;;3.70;81.22
52469;BME280;38381;53.688;10.776;2024-03-06T05:16:37;101957.16;;;3.68;81.25
52469;BME280;38381;53.688;10.776;2024-03-06T05:21:37;101964.38;;;3.75;81.11
52469;BME280;38381;53.688;10.776;2024-03-06T05:26:38;101963.97;;;3.84;81.07
52469;BME280;38381;53.688;10.776;2024-03-06T05:31:38;101972.00;;;3.74;81.10
52469;BME280;38381;53.688;10.776;2024-03-06T05:36:39;101979.78;;;3.75;81.15
52469;BME280;38381;53.688;10.776;2024-03-06T05:41:39;101988.75;;;3.67;81.28
52469;BME280;38381;53.688;10.776;2024-03-06T05:46:41;101999.69;;;3.65;82.04
52469;BME280;38381;53.688;10.776;2024-03-06T05:51:41;101996.59;;;3.70;81.27
52469;BME280;38381;53.688;10.776;2024-03-06T05:56:42;102003.66;;;3.74;80.81
52469;BME280;38381;53.688;10.776;2024-03-06T06:01:42;102012.81;;;3.69;81.33
52469;BME280;38381;53.688;10.776;2024-03-06T06:06:44;102019.88;;;3.73;81.37
52469;BME280;38381;53.688;10.776;2024-03-06T06:11:44;102023.53;;;3.78;80.76
52469;BME280;38381;53.688;10.776;2024-03-06T06:16:45;102032.41;;;3.83;80.13
52469;BME280;38381;53.688;10.776;2024-03-06T06:21:45;102044.50;;;3.86;80.33
52469;BME280;38381;53.688;10.776;2024-03-06T06:26:48;102048.13;;;3.90;80.21
52469;BME280;38381;53.688;10.776;2024-03-06T06:31:48;102049.09;;;3.92;80.10
52469;BME280;38381;53.688;10.776;2024-03-06T06:36:48;102055.66;;;3.87;79.97
52469;BME280;38381;53.688;10.776;2024-03-06T06:41:49;102061.59;;;3.86;80.89
52469;BME280;38381;53.688;10.776;2024-03-06T06:46:49;102071.75;;;3.84;80.39
52469;BME280;38381;53.688;10.776;2024-03-06T06:51:50;102079.63;;;3.87;80.28
52469;BME280;38381;53.688;10.776;2024-03-06T06:56:50;102080.00;;;3.78;80.94
52469;BME280;38381;53.688;10.776;2024-03-06T07:01:50;102087.97;;;3.68;81.45
52469;BME280;38381;53.688;10.776;2024-03-06T07:06:51;102101.84;;;3.87;80.81
52469;BME280;38381;53.688;10.776;2024-03-06T07:11:51;102103.38;;;3.99;80.21
52469;BME280;38381;53.688;10.776;2024-03-06T07:16:52;102109.25;;;3.97;80.45
52469;BME280;38381;53.688;10.776;2024-03-06T07:21:53;102118.44;;;4.08;79.42
52469;BME280;38381;53.688;10.776;2024-03-06T07:26:54;102120.44;;;4.14;78.89
52469;BME280;38381;53.688;10.776;2024-03-06T07:31:54;102126.13;;;4.08;78.98
52469;BME280;38381;53.688;10.776;2024-03-06T07:36:55;102134.91;;;4.28;78.39
52469;BME280;38381;53.688;10.776;2024-03-06T07:41:55;102135.38;;;4.21;78.94
52469;BME280;38381;53.688;10.776;2024-03-06T07:46:55;102140.47;;;4.52;78.64
52469;BME280;38381;53.688;10.776;2024-03-06T07:51:57;102140.47;;;4.52;77.43
52469;BME280;38381;53.688;10.776;2024-03-06T07:56:58;102145.94;;;4.58;77.24
52469;BME280;38381;53.688;10.776;2024-03-06T08:01:58;102147.13;;;4.65;75.18
52469;BME280;38381;53.688;10.776;2024-03-06T08:06:59;102158.25;;;4.80;74.49
52469;BME280;38381;53.688;10.776;2024-03-06T08:11:59;102161.69;;;4.97;74.66
52469;BME280;38381;53.688;10.776;2024-03-06T08:17:00;102172.28;;;4.87;72.50
52469;BME280;38381;53.688;10.776;2024-03-06T08:22:03;102173.75;;;4.66;73.60
52469;BME280;38381;53.688;10.776;2024-03-06T08:27:03;102187.94;;;4.92;73.65
52469;BME280;38381;53.688;10.776;2024-03-06T08:32:04;102183.38;;;5.02;73.80
52469;BME280;38381;53.688;10.776;2024-03-06T08:37:04;102189.22;;;5.16;72.28
52469;BME280;38381;53.688;10.776;2024-03-06T08:42:06;102194.69;;;5.22;70.52
52469;BME280;38381;53.688;10.776;2024-03-06T08:47:06;102202.03;;;5.49;69.98
52469;BME280;38381;53.688;10.776;2024-03-06T08:52:07;102202.03;;;5.49;68.56
52469;BME280;38381;53.688;10.776;2024-03-06T08:57:07;102209.38;;;5.41;71.78
52469;BME280;38381;53.688;10.776;2024-03-06T09:02:13;102208.13;;;5.33;71.43
52469;BME280;38381;53.688;10.776;2024-03-06T09:07:14;102212.53;;;5.36;71.43
52469;BME280;38381;53.688;10.776;2024-03-06T09:12:15;102217.09;;;5.41;70.67
52469;BME280;38381;53.688;10.776;2024-03-06T09:17:15;102217.91;;;5.40;70.96
52469;BME280;38381;53.688;10.776;2024-03-06T09:22:16;102223.88;;;5.39;71.24
52469;BME280;38381;53.688;10.776;2024-03-06T09:27:17;102229.78;;;5.38;71.63
52469;BME280;38381;53.688;10.776;2024-03-06T09:32:18;102237.75;;;5.27;72.26
52469;BME280;38381;53.688;10.776;2024-03-06T09:37:19;102236.78;;;5.41;72.04
52469;BME280;38381;53.688;10.776;2024-03-06T09:42:20;102237.16;;;5.65;72.23
52469;BME280;38381;53.688;10.776;2024-03-06T09:47:21;102238.97;;;5.68;71.92
52469;BME280;38381;53.688;10.776;2024-03-06T09:52:24;102244.22;;;5.69;70.10
52469;BME280;38381;53.688;10.776;2024-03-06T09:57:25;102244.19;;;5.85;70.51
52469;BME280;38381;53.688;10.776;2024-03-06T10:02:38;102254.38;;;5.84;69.20
52469;BME280;38381;53.688;10.776;2024-03-06T10:07:38;102249.41;;;5.87;68.53
52469;BME280;38381;53.688;10.776;2024-03-06T10:12:41;102258.81;;;6.03;69.10
52469;BME280;38381;53.688;10.776;2024-03-06T10:17:42;102260.50;;;6.20;68.24
52469;BME280;38381;53.688;10.776;2024-03-06T10:22:54;102259.34;;;6.32;67.89
52469;BME280;38381;53.688;10.776;2024-03-06T10:28:06;102265.94;;;6.27;67.55
52469;BME280;38381;53.688;10.776;2024-03-06T10:33:10;102271.75;;;6.22;65.67
52469;BME280;38381;53.688;10.776;2024-03-06T10:38:11;102273.53;;;6.41;66.33
52469;BME280;38381;53.688;10.776;2024-03-06T10:43:12;102282.97;;;6.41;66.89
52469;BME280;38381;53.688;10.776;2024-03-06T10:48:14;102283.50;;;6.34;67.27
52469;BME280;38381;53.688;10.776;2024-03-06T10:53:16;102285.25;;;6.35;69.38
52469;BME280;38381;53.688;10.776;2024-03-06T10:58:18;102287.03;;;6.36;69.30
52469;BME280;38381;53.688;10.776;2024-03-06T11:03:20;102285.78;;;6.28;67.00
52469;BME280;38381;53.688;10.776;2024-03-06T11:08:20;102278.63;;;6.40;67.53
52469;BME280;38381;53.688;10.776;2024-03-06T11:13:23;102285.09;;;6.50;67.05
52469;BME280;38381;53.688;10.776;2024-03-06T11:23:34;102296.44;;;6.53;65.27
52469;BME280;38381;53.688;10.776;2024-03-06T11:28:36;102296.31;;;6.50;65.21
52469;BME280;38381;53.688;10.776;2024-03-06T11:33:43;102296.97;;;6.46;63.91
52469;BME280;38381;53.688;10.776;2024-03-06T11:39:02;102299.75;;;6.33;66.65
52469;BME280;38381;53.688;10.776;2024-03-06T11:44:12;102308.22;;;6.30;67.82
52469;BME280;38381;53.688;10.776;2024-03-06T11:49:24;102322.63;;;6.27;68.48
52469;BME280;38381;53.688;10.776;2024-03-06T11:54:25;102315.19;;;6.33;67.84
52469;BME280;38381;53.688;10.776;2024-03-06T11:59:28;102308.28;;;6.32;68.22
52469;BME280;38381;53.688;10.776;2024-03-06T12:04:30;102304.06;;;6.52;67.82
52469;BME280;38381;53.688;10.776;2024-03-06T12:09:33;102314.09;;;6.45;67.94
52469;BME280;38381;53.688;10.776;2024-03-06T12:14:34;102316.31;;;6.56;67.62
52469;BME280;38381;53.688;10.776;2024-03-06T12:19:35;102316.47;;;6.59;67.30
52469;BME280;38381;53.688;10.776;2024-03-06T12:24:36;102320.34;;;6.33;67.01
52469;BME280;38381;53.688;10.776;2024-03-06T12:29:36;102328.69;;;6.45;68.29
52469;BME280;38381;53.688;10.776;2024-03-06T12:34:37;102315.50;;;6.39;68.03
52469;BME280;38381;53.688;10.776;2024-03-06T12:39:38;102325.00;;;6.40;67.15
52469;BME280;38381;53.688;10.776;2024-03-06T12:44:39;102318.75;;;6.35;66.41
52469;BME280;38381;53.688;10.776;2024-03-06T12:49:41;102311.38;;;6.42;66.59
52469;BME280;38381;53.688;10.776;2024-03-06T12:54:42;102313.50;;;6.51;67.40
52469;BME280;38381;53.688;10.776;2024-03-06T12:59:42;102313.50;;;6.51;67.19
52469;BME280;38381;53.688;10.776;2024-03-06T13:04:43;102309.38;;;6.37;66.83
52469;BME280;38381;53.688;10.776;2024-03-06T13:09:44;102313.22;;;6.45;66.67
52469;BME280;38381;53.688;10.776;2024-03-06T13:14:44;102308.44;;;6.35;67.21
52469;BME280;38381;53.688;10.776;2024-03-06T13:19:45;102314.91;;;6.27;67.29
52469;BME280;38381;53.688;10.776;2024-03-06T13:24:45;102312.63;;;6.33;66.65
52469;BME280;38381;53.688;10.776;2024-03-06T13:29:46;102313.88;;;6.41;66.69
52469;BME280;38381;53.688;10.776;2024-03-06T13:34:46;102316.44;;;6.23;67.67
52469;BME280;38381;53.688;10.776;2024-03-06T13:39:46;102314.03;;;6.26;66.83
52469;BME280;38381;53.688;10.776;2024-03-06T13:44:48;102328.44;;;6.22;66.77
52469;BME280;38381;53.688;10.776;2024-03-06T13:49:48;102326.13;;;6.11;67.02
52469;BME280;38381;53.688;10.776;2024-03-06T13:54:49;102329.41;;;6.24;67.11
52469;BME280;38381;53.688;10.776;2024-03-06T13:59:49;102326.91;;;6.26;66.55
52469;BME280;38381;53.688;10.776;2024-03-06T14:04:50;102336.38;;;6.09;67.59
52469;BME280;38381;53.688;10.776;2024-03-06T14:09:51;102337.19;;;6.08;67.33
52469;BME280;38381;53.688;10.776;2024-03-06T14:14:51;102338.78;;;5.90;67.37
52469;BME280;38381;53.688;10.776;2024-03-06T14:19:52;102343.06;;;6.06;67.43
52469;BME280;38381;53.688;10.776;2024-03-06T14:24:52;102338.47;;;5.83;67.49
52469;BME280;38381;53.688;10.776;2024-03-06T14:29:53;102347.91;;;5.83;67.97
52469;BME280;38381;53.688;10.776;2024-03-06T14:34:54;102348.00;;;5.84;68.01
52469;BME280;38381;53.688;10.776;2024-03-06T14:39:54;102353.03;;;5.83;68.10
52469;BME280;38381;53.688;10.776;2024-03-06T14:44:55;102350.91;;;5.74;67.37
52469;BME280;38381;53.688;10.776;2024-03-06T14:49:55;102350.88;;;5.91;68.04
52469;BME280;38381;53.688;10.776;2024-03-06T14:54:56;102356.16;;;5.94;67.59
52469;BME280;38381;53.688;10.776;2024-03-06T14:59:56;102364.09;;;5.97;67.66
52469;BME280;38381;53.688;10.776;2024-03-06T15:04:56;102362.41;;;5.97;67.16
52469;BME280;38381;53.688;10.776;2024-03-06T15:09:58;102365.72;;;5.95;67.90
52469;BME280;38381;53.688;10.776;2024-03-06T15:15:01;102363.69;;;5.73;67.74
52469;BME280;38381;53.688;10.776;2024-03-06T15:20:03;102377.75;;;5.63;68.82
52469;BME280;38381;53.688;10.776;2024-03-06T15:25:04;102374.53;;;5.67;68.92
52469;BME280;38381;53.688;10.776;2024-03-06T15:30:05;102373.25;;;5.59;68.50
52469;BME280;38381;53.688;10.776;2024-03-06T15:35:06;102378.56;;;5.46;69.04
52469;BME280;38381;53.688;10.776;2024-03-06T15:40:09;102374.84;;;5.57;69.14
52469;BME280;38381;53.688;10.776;2024-03-06T15:45:11;102381.44;;;5.35;70.23
52469;BME280;38381;53.688;10.776;2024-03-06T15:50:12;102378.88;;;5.52;70.26
52469;BME280;38381;53.688;10.776;2024-03-06T15:55:12;102388.00;;;5.30;70.42
52469;BME280;38381;53.688;10.776;2024-03-06T16:00:13;102383.03;;;5.33;69.88
52469;BME280;38381;53.688;10.776;2024-03-06T16:05:16;102390.25;;;5.24;70.47
52469;BME280;38381;53.688;10.776;2024-03-06T16:10:17;102389.78;;;5.31;70.57
52469;BME280;38381;53.688;10.776;2024-03-06T16:15:17;102391.56;;;5.32;70.91
52469;BME280;38381;53.688;10.776;2024-03-06T16:20:18;102388.81;;;5.29;70.74
52469;BME280;38381;53.688;10.776;2024-03-06T16:25:18;102393.31;;;5.17;70.76
52469;BME280;38381;53.688;10.776;2024-03-06T16:30:18;102396.28;;;5.24;70.89
52469;BME280;38381;53.688;10.776;2024-03-06T16:35:19;102394.56;;;5.09;70.68
52469;BME280;38381;53.688;10.776;2024-03-06T16:40:19;102401.03;;;5.17;70.72
52469;BME280;38381;53.688;10.776;2024-03-06T16:45:20;102401.16;;;5.20;71.67
52469;BME280;38381;53.688;10.776;2024-03-06T16:50:20;102403.84;;;4.90;71.26
52469;BME280;38381;53.688;10.776;2024-03-06T16:55:21;102414.75;;;4.86;72.00
52469;BME280;38381;53.688;10.776;2024-03-06T17:00:21;102419.94;;;4.88;72.29
52469;BME280;38381;53.688;10.776;2024-03-06T17:05:23;102423.34;;;4.72;72.13
52469;BME280;38381;53.688;10.776;2024-03-06T17:10:24;102423.69;;;4.63;72.95
52469;BME280;38381;53.688;10.776;2024-03-06T17:15:24;102425.22;;;4.59;72.64
52469;BME280;38381;53.688;10.776;2024-03-06T17:20:24;102425.03;;;4.56;72.97
52469;BME280;38381;53.688;10.776;2024-03-06T17:25:25;102430.88;;;4.39;74.19
52469;BME280;38381;53.688;10.776;2024-03-06T17:30:25;102432.75;;;4.41;74.64
52469;BME280;38381;53.688;10.776;2024-03-06T17:35:27;102440.34;;;4.25;74.74
52469;BME280;38381;53.688;10.776;2024-03-06T17:40:27;102438.25;;;4.33;74.86
52469;BME280;38381;53.688;10.776;2024-03-06T17:45:28;102450.53;;;4.23;75.83
52469;BME280;38381;53.688;10.776;2024-03-06T17:50:30;102449.78;;;4.11;75.73
52469;BME280;38381;53.688;10.776;2024-03-06T17:55:33;102454.91;;;4.11;76.43
52469;BME280;38381;53.688;10.776;2024-03-06T18:00:33;102454.56;;;4.05;76.40
52469;BME280;38381;53.688;10.776;2024-03-06T18:05:34;102467.28;;;4.03;75.89
52469;BME280;38381;53.688;10.776;2024-03-06T18:10:35;102468.44;;;3.94;77.22
52469;BME280;38381;53.688;10.776;2024-03-06T18:15:35;102463.00;;;3.89;77.16
52469;BME280;38381;53.688;10.776;2024-03-06T18:20:36;102471.03;;;3.80;77.85
52469;BME280;38381;53.688;10.776;2024-03-06T18:25:38;102468.09;;;3.74;78.08
52469;BME280;38381;53.688;10.776;2024-03-06T18:30:38;102475.31;;;3.67;78.05
52469;BME280;38381;53.688;10.776;2024-03-06T18:35:39;102474.75;;;3.57;78.78
52469;BME280;38381;53.688;10.776;2024-03-06T18:40:40;102469.72;;;3.46;79.20
52469;BME280;38381;53.688;10.776;2024-03-06T18:45:41;102473.69;;;3.40;79.99
52469;BME280;38381;53.688;10.776;2024-03-06T18:50:41;102481.97;;;3.36;79.38
52469;BME280;38381;53.688;10.776;2024-03-06T18:55:42;102484.66;;;3.25;80.05
52469;BME280;38381;53.688;10.776;2024-03-06T19:00:42;102489.38;;;3.18;80.16
52469;BME280;38381;53.688;10.776;2024-03-06T19:05:42;102497.97;;;3.06;81.25
52469;BME280;38381;53.688;10.776;2024-03-06T19:10:43;102510.66;;;3.04;82.04
52469;BME280;38381;53.688;10.776;2024-03-06T19:15:44;102508.00;;;3.02;82.49
52469;BME280;38381;53.688;10.776;2024-03-06T19:20:44;102513.22;;;3.04;83.44
52469;BME280;38381;53.688;10.776;2024-03-06T19:25:45;102513.41;;;2.94;85.11
52469;BME280;38381;53.688;10.776;2024-03-06T19:30:45;102507.41;;;3.07;86.56
52469;BME280;38381;53.688;10.776;2024-03-06T19:35:46;102517.66;;;3.07;86.85
52469;BME280;38381;53.688;10.776;2024-03-06T19:40:46;102507.03;;;3.14;85.75
52469;BME280;38381;53.688;10.776;2024-03-06T19:45:47;102513.03;;;3.14;86.08
52469;BME280;38381;53.688;10.776;2024-03-06T19:50:47;102510.97;;;3.09;86.61
52469;BME280;38381;53.688;10.776;2024-03-06T19:55:47;102508.50;;;3.10;86.48
52469;BME280;38381;53.688;10.776;2024-03-06T20:00:48;102507.63;;;3.10;86.32
52469;BME280;38381;53.688;10.776;2024-03-06T20:05:49;102516.09;;;3.09;86.26
52469;BME280;38381;53.688;10.776;2024-03-06T20:10:49;102523.47;;;3.04;86.38
52469;BME280;38381;53.688;10.776;2024-03-06T20:15:50;102527.13;;;2.94;87.75
52469;BME280;38381;53.688;10.776;2024-03-06T20:20:50;102513.94;;;3.01;89.71
52469;BME280;38381;53.688;10.776;2024-03-06T20:25:51;102508.78;;;3.15;88.22
52469;BME280;38381;53.688;10.776;2024-03-06T20:30:51;102509.59;;;3.14;88.62
52469;BME280;38381;53.688;10.776;2024-03-06T20:35:52;102512.25;;;3.15;88.47
52469;BME280;38381;53.688;10.776;2024-03-06T20:40:53;102513.75;;;3.12;88.95
52469;BME280;38381;53.688;10.776;2024-03-06T20:45:53;102520.72;;;3.14;88.79
52469;BME280;38381;53.688;10.776;2024-03-06T20:50:54;102514.91;;;3.17;89.33
52469;BME280;38381;53.688;10.776;2024-03-06T20:55:55;102516.88;;;3.21;89.85
52469;BME280;38381;53.688;10.776;2024-03-06T21:00:56;102520.53;;;3.25;90.46
52469;BME280;38381;53.688;10.776;2024-03-06T21:05:56;102520.34;;;3.35;90.16
52469;BME280;38381;53.688;10.776;2024-03-06T21:10:56;102520.66;;;3.26;91.41
52469;BME280;38381;53.688;10.776;2024-03-06T21:15:58;102516.38;;;3.40;91.84
52469;BME280;38381;53.688;10.776;2024-03-06T21:21:00;102507.09;;;3.55;91.09
52469;BME280;38381;53.688;10.776;2024-03-06T21:26:00;102520.31;;;3.61;90.40
52469;BME280;38381;53.688;10.776;2024-03-06T21:31:01;102530.59;;;3.61;90.30
52469;BME280;38381;53.688;10.776;2024-03-06T21:36:01;102524.47;;;3.59;91.63
52469;BME280;38381;53.688;10.776;2024-03-06T21:41:01;102513.50;;;3.75;90.58
52469;BME280;38381;53.688;10.776;2024-03-06T21:46:03;102526.22;;;3.74;90.82
52469;BME280;38381;53.688;10.776;2024-03-06T21:51:03;102525.25;;;3.72;91.94
52469;BME280;38381;53.688;10.776;2024-03-06T21:56:04;102506.06;;;3.80;93.37
52469;BME280;38381;53.688;10.776;2024-03-06T22:01:04;102504.66;;;3.85;91.86
52469;BME280;38381;53.688;10.776;2024-03-06T22:06:05;102510.09;;;3.90;92.95
52469;BME280;38381;53.688;10.776;2024-03-06T22:11:06;102507.53;;;3.90;93.98
52469;BME280;38381;53.688;10.776;2024-03-06T22:16:08;102513.72;;;3.93;95.06
52469;BME280;38381;53.688;10.776;2024-03-06T22:21:09;102521.31;;;4.05;94.98
52469;BME280;38381;53.688;10.776;2024-03-06T22:26:09;102527.69;;;4.12;94.39
52469;BME280;38381;53.688;10.776;2024-03-06T22:31:10;102520.06;;;3.98;95.88
52469;BME280;38381;53.688;10.776;2024-03-06T22:36:18;102521.91;;;4.01;96.34
52469;BME280;38381;53.688;10.776;2024-03-06T22:41:22;102527.63;;;4.10;95.68
52469;BME280;38381;53.688;10.776;2024-03-06T22:46:23;102515.66;;;4.11;96.11
52469;BME280;38381;53.688;10.776;2024-03-06T22:51:24;102525.09;;;4.25;95.68
52469;BME280;38381;53.688;10.776;2024-03-06T22:56:24;102524.38;;;4.28;95.05
52469;BME280;38381;53.688;10.776;2024-03-06T23:01:24;102524.97;;;4.37;94.11
52469;BME280;38381;53.688;10.776;2024-03-06T23:06:25;102516.78;;;4.29;94.42
52469;BME280;38381;53.688;10.776;2024-03-06T23:11:25;102524.88;;;4.22;95.01
52469;BME280;38381;53.688;10.776;2024-03-06T23:16:26;102515.81;;;4.27;95.52
52469;BME280;38381;53.688;10.776;2024-03-06T23:21:26;102522.19;;;4.34;94.60
52469;BME280;38381;53.688;10.776;2024-03-06T23:26:27;102511.66;;;4.44;94.64
52469;BME280;38381;53.688;10.776;2024-03-06T23:31:28;102518.22;;;4.39;94.08
52469;BME280;38381;53.688;10.776;2024-03-06T23:36:28;102512.19;;;4.38;94.35
52469;BME280;38381;53.688;10.776;2024-03-06T23:41:29;102518.84;;;4.50;94.16
52469;BME280;38381;53.688;10.776;2024-03-06T23:46:31;102527.53;;;4.52;94.03
52469;BME280;38381;53.688;10.776;2024-03-06T23:51:31;102515.41;;;4.49;94.58
52469;BME280;38381;53.688;10.776;2024-03-06T23:56:33;102521.78;;;4.56;93.79
